Time;durP1;ratioP1;P1;durP2;ratioP2;P2;SDS_P1;SDS_P2;PMS_P1;PMS_P2;Temp;Humidity;BMP_temperature;BMP_pressure;BME280_temperature;BME280_humidity;BME280_pressure;Samples;Min_cycle;Max_cycle;Signal;HPM_P1;HPM_P2
2022/07/19 00:01:02;;;;;;;10.27;5.00;;;;;;;25.49;36.20;101633.28;5026887;27;97381;-70
2022/07/19 00:03:28;;;;;;;10.07;5.15;;;;;;;25.20;36.18;101622.22;5028040;27;98403;-70
2022/07/19 00:05:55;;;;;;;14.43;5.28;;;;;;;25.44;35.72;101627.41;5021497;27;99405;-70
2022/07/19 00:08:21;;;;;;;8.60;4.43;;;;;;;25.47;36.19;101624.44;5023820;27;99839;-70
2022/07/19 00:10:47;;;;;;;7.05;4.38;;;;;;;25.37;36.33;101629.78;5020861;27;98215;-71
2022/07/19 00:13:15;;;;;;;6.82;4.88;;;;;;;25.30;36.80;101622.28;5025101;27;97794;-70
2022/07/19 00:15:41;;;;;;;8.63;4.72;;;;;;;25.36;36.31;101621.78;5023102;27;98698;-71
2022/07/19 00:18:08;;;;;;;9.95;4.30;;;;;;;25.48;36.52;101626.16;5023690;27;98780;-72
2022/07/19 00:20:34;;;;;;;6.35;4.38;;;;;;;25.36;36.93;101627.19;5019706;27;97631;-70
2022/07/19 00:23:01;;;;;;;9.20;4.53;;;;;;;25.19;37.25;101625.03;5025098;27;96930;-69
2022/07/19 00:25:27;;;;;;;6.22;4.35;;;;;;;25.48;36.58;101628.00;5021042;27;100017;-69
2022/07/19 00:27:54;;;;;;;11.23;4.22;;;;;;;25.36;36.09;101624.47;5027729;27;98875;-72
2022/07/19 00:30:21;;;;;;;12.05;5.25;;;;;;;25.31;36.49;101619.47;5026777;27;96963;-70
2022/07/19 00:32:50;;;;;;;10.73;5.10;;;;;;;25.11;36.84;101625.66;5027276;27;96791;-70
2022/07/19 00:35:17;;;;;;;6.53;3.92;;;;;;;25.23;36.01;101627.34;5023771;27;98948;-70
2022/07/19 00:37:44;;;;;;;8.20;4.57;;;;;;;25.30;36.46;101639.38;5022343;27;99847;-70
2022/07/19 00:40:12;;;;;;;7.28;4.00;;;;;;;25.12;36.52;101631.94;5023329;27;96939;-70
2022/07/19 00:42:39;;;;;;;7.90;4.50;;;;;;;25.30;36.00;101625.84;5021638;27;97508;-70
2022/07/19 00:45:06;;;;;;;7.53;4.30;;;;;;;25.19;36.40;101630.44;5025758;27;99116;-70
2022/07/19 00:47:34;;;;;;;11.43;4.70;;;;;;;25.29;36.25;101639.50;5025532;27;98840;-70
2022/07/19 00:50:00;;;;;;;7.95;4.18;;;;;;;25.15;36.51;101640.63;5025688;27;98922;-70
2022/07/19 00:52:29;;;;;;;8.40;4.78;;;;;;;25.21;35.92;101633.84;5026235;27;97073;-71
2022/07/19 00:54:55;;;;;;;8.20;4.43;;;;;;;25.27;35.72;101644.19;5022238;28;99305;-70
2022/07/19 00:57:24;;;;;;;11.23;4.45;;;;;;;25.26;36.36;101639.78;5026946;27;99287;-71
2022/07/19 00:59:52;;;;;;;9.00;4.78;;;;;;;25.50;35.38;101643.13;5015925;27;97294;-70
2022/07/19 01:02:19;;;;;;;5.80;4.70;;;;;;;25.59;35.21;101645.09;5023530;27;97668;-70
2022/07/19 01:04:47;;;;;;;10.40;4.30;;;;;;;25.63;35.35;101646.53;5021795;27;98923;-70
2022/07/19 01:07:14;;;;;;;5.70;4.22;;;;;;;25.37;35.68;101639.72;5021922;27;98865;-70
2022/07/19 01:09:42;;;;;;;7.80;4.57;;;;;;;25.38;35.68;101644.16;5021726;27;97082;-70
2022/07/19 01:12:09;;;;;;;6.82;4.35;;;;;;;25.40;35.32;101639.50;5022831;27;97113;-70
2022/07/19 01:14:36;;;;;;;8.05;4.88;;;;;;;25.23;35.71;101648.13;5018963;27;99029;-70
2022/07/19 01:17:03;;;;;;;9.95;4.50;;;;;;;25.20;36.08;101646.56;5021762;27;101905;-71
2022/07/19 01:19:29;;;;;;;6.22;4.47;;;;;;;25.23;36.00;101640.88;5022577;27;97320;-71
2022/07/19 01:21:57;;;;;;;13.15;4.32;;;;;;;25.02;36.10;101640.78;5026520;27;96857;-70
2022/07/19 01:24:23;;;;;;;8.40;4.70;;;;;;;25.11;36.22;101641.03;5025152;27;99019;-70
2022/07/19 01:26:50;;;;;;;8.70;4.38;;;;;;;25.20;36.57;101645.69;5024360;27;98775;-70
2022/07/19 01:29:17;;;;;;;7.30;4.38;;;;;;;25.32;35.32;101647.38;5021072;27;97799;-70
2022/07/19 01:31:44;;;;;;;6.43;4.03;;;;;;;25.52;34.76;101648.41;5022632;27;97694;-71
2022/07/19 01:34:10;;;;;;;7.95;4.80;;;;;;;25.48;34.51;101642.38;5025986;27;101159;-70
2022/07/19 01:36:37;;;;;;;7.68;4.28;;;;;;;25.53;34.54;101642.03;5022013;27;99131;-70
2022/07/19 01:39:04;;;;;;;6.53;4.22;;;;;;;25.41;35.81;101639.34;5022582;27;96667;-70
2022/07/19 01:41:31;;;;;;;7.88;3.92;;;;;;;25.25;36.53;101635.34;5025812;27;97205;-71
2022/07/19 01:43:57;;;;;;;9.23;4.20;;;;;;;24.99;36.88;101638.34;5027755;28;99019;-71
2022/07/19 01:46:24;;;;;;;6.80;4.22;;;;;;;24.84;37.48;101628.75;5019964;27;98924;-71
2022/07/19 01:48:50;;;;;;;6.78;3.95;;;;;;;24.84;37.27;101633.31;5021237;27;97266;-71
2022/07/19 01:51:16;;;;;;;9.13;4.55;;;;;;;24.94;37.37;101632.44;5023419;27;96812;-71
2022/07/19 01:53:43;;;;;;;8.95;4.63;;;;;;;24.87;37.40;101633.94;5024417;27;102124;-70
2022/07/19 01:56:11;;;;;;;11.20;4.47;;;;;;;24.74;37.34;101630.50;5019676;27;99415;-70
2022/07/19 01:58:37;;;;;;;9.00;3.58;;;;;;;24.67;37.08;101628.41;5026354;27;97046;-70
2022/07/19 02:01:04;;;;;;;7.97;4.25;;;;;;;24.87;37.23;101631.22;5022171;27;96891;-71
2022/07/19 02:03:30;;;;;;;11.30;4.47;;;;;;;24.88;37.23;101627.50;5020093;27;101842;-71
2022/07/19 02:05:57;;;;;;;10.63;5.05;;;;;;;24.78;37.14;101625.69;5023719;27;99321;-71
2022/07/19 02:08:24;;;;;;;7.40;3.95;;;;;;;24.82;37.39;101627.16;5018001;27;97014;-71
2022/07/19 02:10:51;;;;;;;9.95;4.85;;;;;;;24.91;37.18;101630.00;5024442;27;96863;-70
2022/07/19 02:13:18;;;;;;;6.63;4.15;;;;;;;24.99;37.26;101627.53;5023973;27;98854;-71
2022/07/19 02:15:45;;;;;;;7.40;4.32;;;;;;;25.01;36.72;101624.69;5026179;27;99014;-71
2022/07/19 02:18:14;;;;;;;6.32;3.95;;;;;;;24.77;36.87;101624.84;5028911;28;96667;-71
2022/07/19 02:20:41;;;;;;;6.80;3.90;;;;;;;24.76;37.19;101625.81;5020205;27;96785;-71
2022/07/19 02:23:07;;;;;;;6.18;4.00;;;;;;;24.77;37.12;101623.97;5026803;27;99072;-71
2022/07/19 02:25:33;;;;;;;7.72;3.90;;;;;;;24.62;36.90;101620.66;5019350;27;98950;-71
2022/07/19 02:28:00;;;;;;;8.15;3.95;;;;;;;24.43;37.01;101612.31;5018456;27;96833;-71
2022/07/19 02:30:29;;;;;;;7.25;3.55;;;;;;;24.35;37.37;101628.28;5019741;27;97079;-71
2022/07/19 02:32:56;;;;;;;6.25;3.90;;;;;;;24.20;38.40;101627.66;5025579;27;98518;-71
2022/07/19 02:35:23;;;;;;;7.60;3.97;;;;;;;24.19;39.08;101629.50;5012300;28;98761;-71
2022/07/19 02:37:49;;;;;;;8.82;4.28;;;;;;;24.06;39.04;101625.16;5021101;27;97399;-71
2022/07/19 02:40:16;;;;;;;5.82;3.88;;;;;;;24.00;38.86;101626.50;5026632;27;96831;-71
2022/07/19 02:42:42;;;;;;;10.05;3.72;;;;;;;23.93;38.62;101635.19;5019931;28;99580;-71
2022/07/19 02:45:09;;;;;;;7.97;3.22;;;;;;;23.70;39.66;101631.53;5019824;27;99480;-71
2022/07/19 02:47:38;;;;;;;7.20;3.78;;;;;;;24.09;38.84;101627.63;5022108;27;97882;-71
2022/07/19 02:50:05;;;;;;;8.98;3.65;;;;;;;23.97;38.84;101615.91;5020256;27;97680;-71
2022/07/19 02:52:31;;;;;;;14.23;4.43;;;;;;;24.05;38.73;101618.88;5020733;27;99334;-70
2022/07/19 02:54:58;;;;;;;9.65;3.75;;;;;;;23.91;38.77;101619.09;5027522;27;99232;-70
2022/07/19 02:57:24;;;;;;;12.60;4.20;;;;;;;23.81;38.92;101618.09;5022872;27;97107;-70
2022/07/19 02:59:50;;;;;;;8.35;3.95;;;;;;;23.72;39.02;101625.06;5021384;27;97001;-70
2022/07/19 03:02:17;;;;;;;6.78;3.70;;;;;;;23.75;38.87;101613.19;5023108;28;98256;-71
2022/07/19 03:04:45;;;;;;;4.68;3.42;;;;;;;23.64;39.58;101618.50;5021407;28;99030;-71
2022/07/19 03:07:11;;;;;;;6.47;3.72;;;;;;;23.70;39.65;101610.81;5023647;27;97679;-71
2022/07/19 03:09:38;;;;;;;5.13;3.60;;;;;;;23.65;39.44;101618.41;5022042;27;98265;-71
2022/07/19 03:12:04;;;;;;;6.47;3.67;;;;;;;23.66;39.41;101619.28;5023102;27;99457;-71
2022/07/19 03:14:31;;;;;;;10.70;3.60;;;;;;;23.63;39.25;101628.44;5021456;27;98897;-71
2022/07/19 03:16:57;;;;;;;8.80;4.40;;;;;;;23.50;39.53;101626.81;5018553;27;97022;-71
2022/07/19 03:19:26;;;;;;;15.05;4.03;;;;;;;23.58;39.50;101617.16;5024050;27;97510;-72
2022/07/19 03:21:54;;;;;;;10.43;4.18;;;;;;;23.55;39.64;101619.25;5023325;27;99332;-71
2022/07/19 03:24:20;;;;;;;11.77;4.43;;;;;;;23.53;40.14;101623.88;5020656;27;98959;-71
2022/07/19 03:26:47;;;;;;;7.18;3.58;;;;;;;23.47;40.53;101614.41;5025495;27;96783;-71
2022/07/19 03:29:13;;;;;;;6.45;3.72;;;;;;;23.29;40.86;101615.78;5022803;28;96814;-70
2022/07/19 03:31:39;;;;;;;7.78;3.80;;;;;;;23.41;40.38;101614.84;5023861;28;97964;-70
2022/07/19 03:34:06;;;;;;;4.00;3.40;;;;;;;23.55;40.08;101619.25;5027403;27;98775;-70
2022/07/19 03:36:32;;;;;;;15.18;4.07;;;;;;;23.56;40.19;101620.97;5024734;27;96780;-70
2022/07/19 03:39:00;;;;;;;10.13;4.70;;;;;;;23.45;40.22;101619.88;5023112;28;97428;-70
2022/07/19 03:41:27;;;;;;;8.23;3.90;;;;;;;23.35;40.11;101616.19;5019332;27;98978;-70
2022/07/19 03:43:54;;;;;;;10.10;4.10;;;;;;;23.64;39.77;101623.91;5027471;27;98960;-70
2022/07/19 03:46:20;;;;;;;9.32;3.90;;;;;;;23.73;39.82;101620.53;5027101;27;97493;-69
2022/07/19 03:48:47;;;;;;;7.32;4.22;;;;;;;23.62;40.07;101620.50;5030272;27;96902;-70
2022/07/19 03:51:14;;;;;;;9.18;3.97;;;;;;;23.55;40.34;101621.94;5021359;27;97811;-70
2022/07/19 03:53:40;;;;;;;9.63;4.07;;;;;;;23.68;39.89;101615.50;5024658;28;97498;-70
2022/07/19 03:56:08;;;;;;;8.40;4.18;;;;;;;23.79;39.80;101614.66;5023140;27;97042;-70
2022/07/19 03:58:34;;;;;;;11.05;4.38;;;;;;;24.03;39.42;101615.44;5021214;27;97211;-70
2022/07/19 04:01:01;;;;;;;25.83;4.35;;;;;;;24.21;38.68;101615.88;5028820;28;100630;-71
2022/07/19 04:03:27;;;;;;;7.13;4.15;;;;;;;24.20;38.84;101623.13;5031457;27;99034;-71
2022/07/19 04:05:53;;;;;;;5.97;3.67;;;;;;;24.05;38.76;101618.88;5024365;27;96950;-70
2022/07/19 04:08:20;;;;;;;9.70;4.28;;;;;;;24.18;38.56;101619.63;5028157;27;96908;-70
2022/07/19 04:10:47;;;;;;;11.75;4.30;;;;;;;24.29;38.39;101623.34;5027394;27;99676;-70
2022/07/19 04:13:14;;;;;;;6.28;3.70;;;;;;;24.51;37.92;101615.25;5032216;28;99668;-70
2022/07/19 04:15:41;;;;;;;13.32;4.32;;;;;;;24.65;37.47;101623.13;5023909;27;97235;-73
2022/07/19 04:18:07;;;;;;;13.30;4.53;;;;;;;24.71;37.20;101622.63;5027824;28;97409;-71
2022/07/19 04:20:33;;;;;;;8.93;3.92;;;;;;;24.95;36.79;101623.34;5023840;27;101400;-70
2022/07/19 04:23:00;;;;;;;9.15;4.20;;;;;;;24.92;37.11;101629.03;5028076;28;98855;-71
2022/07/19 04:25:26;;;;;;;9.05;3.67;;;;;;;24.98;36.61;101627.66;5023238;27;97567;-70
2022/07/19 04:27:54;;;;;;;12.63;4.20;;;;;;;24.92;36.78;101629.03;5019079;28;96852;-70
2022/07/19 04:30:21;;;;;;;9.07;4.43;;;;;;;25.09;36.35;101637.59;5026337;27;98971;-70
2022/07/19 04:32:48;;;;;;;9.98;3.97;;;;;;;25.04;36.94;101637.13;5022544;28;98808;-70
2022/07/19 04:35:15;;;;;;;11.95;4.05;;;;;;;24.88;37.80;101634.75;5028770;27;96829;-70
2022/07/19 04:37:42;;;;;;;8.52;4.35;;;;;;;25.05;37.77;101634.28;5027021;27;97079;-70
2022/07/19 04:40:09;;;;;;;7.38;3.92;;;;;;;25.00;38.62;101631.97;5029149;27;99242;-71
2022/07/19 04:42:35;;;;;;;9.02;3.63;;;;;;;25.25;38.08;101641.63;5025030;27;99336;-71
2022/07/19 04:45:02;;;;;;;17.98;4.20;;;;;;;25.10;38.48;101642.88;5027390;27;96875;-70
2022/07/19 04:47:29;;;;;;;10.45;3.95;;;;;;;25.42;37.36;101648.31;5016575;27;98555;-70
2022/07/19 04:49:56;;;;;;;10.63;4.50;;;;;;;25.47;37.65;101637.94;5026815;28;98939;-72
2022/07/19 04:52:22;;;;;;;9.30;3.58;;;;;;;25.56;36.59;101639.91;5026276;27;99370;-71
2022/07/19 04:54:49;;;;;;;6.22;3.58;;;;;;;25.58;36.87;101643.38;5025787;28;97358;-71
2022/07/19 04:57:15;;;;;;;10.13;4.47;;;;;;;25.56;37.11;101641.75;5027119;27;97283;-70
2022/07/19 04:59:42;;;;;;;6.70;4.28;;;;;;;25.89;36.46;101638.03;5024238;28;100923;-70
2022/07/19 05:02:09;;;;;;;10.98;4.75;;;;;;;25.96;36.17;101631.13;5020548;27;98913;-71
2022/07/19 05:04:36;;;;;;;8.10;3.70;;;;;;;26.39;35.56;101639.94;5022181;27;98271;-70
2022/07/19 05:07:03;;;;;;;8.32;3.35;;;;;;;26.54;35.28;101649.44;5032217;27;96792;-70
2022/07/19 05:09:30;;;;;;;7.70;3.63;;;;;;;26.72;34.82;101644.22;5019193;27;99141;-69
2022/07/19 05:11:57;;;;;;;13.52;4.25;;;;;;;26.84;34.51;101637.72;5026541;27;98791;-70
2022/07/19 05:14:23;;;;;;;7.30;3.60;;;;;;;27.45;33.86;101644.84;5015633;27;98655;-71
2022/07/19 05:16:50;;;;;;;8.75;3.60;;;;;;;27.66;32.52;101637.47;5016985;27;97250;-71
2022/07/19 05:19:18;;;;;;;7.50;3.78;;;;;;;28.44;31.76;101637.19;5026822;27;99167;-71
2022/07/19 05:21:46;;;;;;;8.60;4.10;;;;;;;28.47;31.91;101638.78;5020558;27;99970;-71
2022/07/19 05:24:12;;;;;;;7.25;3.83;;;;;;;28.95;30.83;101638.56;5023717;27;97292;-70
2022/07/19 05:26:38;;;;;;;7.97;4.05;;;;;;;28.63;31.34;101638.13;5022865;27;97352;-72
2022/07/19 05:29:05;;;;;;;8.68;5.45;;;;;;;28.57;31.32;101644.16;5026814;27;99359;-71
2022/07/19 05:31:31;;;;;;;7.90;4.05;;;;;;;28.39;31.81;101644.09;5023395;27;101014;-73
2022/07/19 05:33:58;;;;;;;17.15;4.57;;;;;;;28.26;31.41;101654.44;5024187;27;97321;-71
2022/07/19 05:36:24;;;;;;;9.90;3.88;;;;;;;28.17;30.74;101653.44;5019984;27;97409;-70
2022/07/19 05:38:53;;;;;;;8.68;3.80;;;;;;;28.23;31.16;101649.28;5029510;27;99475;-71
2022/07/19 05:41:21;;;;;;;10.43;4.15;;;;;;;28.43;31.23;101654.50;5024591;27;99174;-71
2022/07/19 05:43:48;;;;;;;10.80;4.60;;;;;;;28.37;31.42;101652.38;5024968;27;96824;-70
2022/07/19 05:46:15;;;;;;;6.05;3.50;;;;;;;28.10;30.31;101646.84;5023256;27;96833;-71
2022/07/19 05:48:41;;;;;;;8.98;3.97;;;;;;;28.20;31.48;101653.16;5021513;27;98260;-70
2022/07/19 05:51:08;;;;;;;9.88;3.65;;;;;;;28.26;31.37;101662.59;5019943;28;99376;-71
2022/07/19 05:53:36;;;;;;;6.90;3.83;;;;;;;28.25;31.18;101656.28;5021224;28;97267;-72
2022/07/19 05:56:04;;;;;;;12.23;3.55;;;;;;;28.31;30.03;101660.28;5021546;27;96884;-71
2022/07/19 05:58:31;;;;;;;7.95;3.40;;;;;;;28.32;29.58;101656.56;5026160;27;98948;-70
2022/07/19 06:03:42;;;;;;;7.13;3.38;;;;;;;28.38;30.13;101661.41;5020087;28;96841;-71
2022/07/19 06:06:08;;;;;;;7.75;3.45;;;;;;;28.45;29.89;101651.66;5027551;27;97100;-71
2022/07/19 06:08:35;;;;;;;10.40;3.22;;;;;;;28.62;29.07;101655.47;5027191;27;99319;-71
2022/07/19 06:11:02;;;;;;;6.72;3.45;;;;;;;28.45;29.32;101654.38;5019132;28;99276;-71
2022/07/19 06:13:30;;;;;;;13.85;3.33;;;;;;;28.75;28.77;101654.13;5026495;27;97377;-71
2022/07/19 06:15:56;;;;;;;21.45;3.67;;;;;;;28.79;29.16;101649.25;5022021;27;97059;-71
2022/07/19 06:18:25;;;;;;;13.50;3.30;;;;;;;28.76;28.70;101653.13;5028100;27;100053;-71
2022/07/19 06:20:52;;;;;;;8.13;2.88;;;;;;;29.03;28.39;101652.28;5015970;27;101850;-71
2022/07/19 06:23:18;;;;;;;6.43;3.15;;;;;;;29.07;28.21;101648.25;5026664;27;97036;-71
2022/07/19 06:25:45;;;;;;;9.68;3.33;;;;;;;29.41;28.09;101648.47;5021879;27;97737;-71
2022/07/19 06:28:11;;;;;;;8.23;3.28;;;;;;;29.57;28.10;101651.34;5022302;27;99304;-71
2022/07/19 06:30:39;;;;;;;5.18;2.70;;;;;;;30.19;26.94;101652.25;5023527;27;98858;-70
2022/07/19 06:33:06;;;;;;;8.25;3.30;;;;;;;30.27;27.05;101655.00;5025538;27;97162;-71
2022/07/19 06:35:32;;;;;;;8.30;3.30;;;;;;;30.30;27.57;101651.09;5018757;28;97256;-71
2022/07/19 06:37:58;;;;;;;13.38;3.03;;;;;;;30.46;26.11;101652.03;5021819;28;101582;-72
2022/07/19 06:40:25;;;;;;;5.70;2.45;;;;;;;30.42;25.84;101653.41;5020163;27;99095;-71
2022/07/19 06:42:51;;;;;;;11.98;2.88;;;;;;;30.48;25.52;101658.22;5022762;27;97004;-72
2022/07/19 06:45:18;;;;;;;5.15;3.28;;;;;;;30.58;24.98;101652.69;5020388;27;96887;-70
2022/07/19 06:47:46;;;;;;;8.25;2.50;;;;;;;30.56;25.07;101654.72;5024098;28;98385;-71
2022/07/19 06:50:12;;;;;;;6.63;2.58;;;;;;;31.00;24.44;101644.47;5020864;27;99610;-72
2022/07/19 06:52:39;;;;;;;9.88;2.40;;;;;;;31.18;23.84;101647.13;5025684;27;96874;-71
2022/07/19 06:55:06;;;;;;;15.07;2.95;;;;;;;31.30;23.46;101655.88;5021682;27;97133;-70
2022/07/19 06:57:32;;;;;;;11.68;2.58;;;;;;;31.38;23.85;101653.13;5029824;27;99334;-70
2022/07/19 06:59:59;;;;;;;6.55;2.17;;;;;;;31.37;23.38;101656.91;5022818;27;98777;-71
2022/07/19 07:02:25;;;;;;;4.75;2.50;;;;;;;31.32;22.97;101645.63;5029500;27;96795;-70
2022/07/19 07:04:53;;;;;;;6.95;2.40;;;;;;;31.47;23.63;101650.25;5021738;27;97368;-70
2022/07/19 07:07:19;;;;;;;7.70;2.40;;;;;;;31.46;23.27;101642.22;5027985;28;99094;-71
2022/07/19 07:09:46;;;;;;;9.40;2.25;;;;;;;31.76;23.08;101648.97;5026675;27;98972;-69
2022/07/19 07:12:12;;;;;;;9.43;2.80;;;;;;;31.39;22.88;101652.13;5023598;27;98461;-72
2022/07/19 07:14:39;;;;;;;7.55;2.88;;;;;;;31.39;23.46;101646.66;5025975;28;96790;-71
2022/07/19 07:17:05;;;;;;;19.17;2.85;;;;;;;31.42;22.96;101641.72;5026939;27;98847;-71
2022/07/19 07:19:32;;;;;;;15.50;3.42;;;;;;;31.82;22.95;101642.81;5024865;28;98709;-71
2022/07/19 07:22:01;;;;;;;9.07;2.40;;;;;;;31.80;22.94;101645.72;5023460;27;96801;-72
2022/07/19 07:24:28;;;;;;;11.80;2.72;;;;;;;31.78;22.55;101642.28;5024529;28;97407;-71
2022/07/19 07:26:54;;;;;;;10.70;2.95;;;;;;;31.74;22.63;101642.81;5022816;27;99322;-70
2022/07/19 07:29:21;;;;;;;14.05;3.42;;;;;;;31.89;22.51;101655.63;5023956;27;98049;-72
2022/07/19 07:31:47;;;;;;;11.93;2.63;;;;;;;32.19;22.29;101645.88;5029679;27;96869;-71
2022/07/19 07:34:14;;;;;;;10.85;3.13;;;;;;;32.16;22.43;101643.50;5030226;27;97445;-71
2022/07/19 07:36:41;;;;;;;12.90;2.83;;;;;;;32.39;22.63;101647.19;5023946;27;103335;-69
2022/07/19 07:39:08;;;;;;;11.75;2.40;;;;;;;32.59;21.86;101655.88;5032815;27;97946;-70
2022/07/19 07:41:35;;;;;;;10.38;2.28;;;;;;;32.78;21.60;101643.69;5023684;27;96805;-71
2022/07/19 07:44:01;;;;;;;6.50;2.22;;;;;;;32.63;21.76;101648.13;5025268;28;96812;-71
2022/07/19 07:46:28;;;;;;;6.72;2.30;;;;;;;32.67;21.89;101655.88;5018988;27;98878;-70
2022/07/19 07:48:54;;;;;;;8.00;2.60;;;;;;;32.97;21.63;101645.97;5024624;28;97424;-73
2022/07/19 07:51:21;;;;;;;13.88;2.38;;;;;;;32.93;21.39;101644.66;5023650;28;97025;-69
2022/07/19 07:53:47;;;;;;;6.32;2.60;;;;;;;33.09;21.88;101641.81;5028294;27;96998;-71
2022/07/19 07:56:15;;;;;;;4.97;2.40;;;;;;;33.11;21.42;101644.38;5020926;27;98285;-71
2022/07/19 07:58:42;;;;;;;12.38;2.67;;;;;;;33.03;21.42;101647.16;5023649;28;98785;-71
2022/07/19 08:01:08;;;;;;;5.93;2.25;;;;;;;33.28;21.21;101650.66;5022050;28;96844;-70
2022/07/19 08:03:34;;;;;;;5.93;2.42;;;;;;;33.25;21.08;101653.75;5016205;27;99479;-70
2022/07/19 08:06:01;;;;;;;9.50;2.45;;;;;;;33.30;21.04;101649.41;5024192;27;98154;-72
2022/07/19 08:08:28;;;;;;;7.82;2.10;;;;;;;33.42;21.01;101645.22;5022535;27;98163;-71
2022/07/19 08:10:55;;;;;;;8.73;4.20;;;;;;;33.32;21.24;101654.72;5025071;27;97705;-71
2022/07/19 08:13:24;;;;;;;5.93;2.70;;;;;;;33.49;21.03;101637.97;5024969;27;97107;-70
2022/07/19 08:15:51;;;;;;;15.07;3.40;;;;;;;33.65;20.84;101645.25;5024664;27;101274;-71
2022/07/19 08:18:18;;;;;;;9.48;2.60;;;;;;;33.73;20.50;101649.84;5029164;27;98942;-71
2022/07/19 08:20:44;;;;;;;5.57;2.47;;;;;;;33.71;20.76;101649.16;5024640;27;97454;-72
2022/07/19 08:23:11;;;;;;;5.35;2.45;;;;;;;33.79;20.90;101654.59;5028898;27;96956;-71
2022/07/19 08:25:40;;;;;;;8.73;2.85;;;;;;;33.78;20.58;101650.13;5025527;28;98990;-71
2022/07/19 08:28:07;;;;;;;11.27;2.63;;;;;;;33.96;20.79;101658.88;5022447;27;98859;-71
2022/07/19 08:30:35;;;;;;;12.93;2.85;;;;;;;33.98;20.30;101656.81;5018830;27;96856;-71
2022/07/19 08:33:06;;;;;;;7.60;3.33;;;;;;;34.20;19.95;101655.06;5023438;27;96958;-70
2022/07/19 08:35:33;;;;;;;9.85;2.70;;;;;;;33.98;20.47;101656.81;5019373;27;98977;-71
2022/07/19 08:37:59;;;;;;;9.75;2.13;;;;;;;34.26;20.37;101657.94;5025476;27;98560;-70
2022/07/19 08:40:26;;;;;;;7.18;2.05;;;;;;;34.16;19.98;101659.19;5018236;27;97198;-70
2022/07/19 08:42:54;;;;;;;3.25;1.90;;;;;;;34.36;19.92;101654.91;5027122;27;98812;-70
2022/07/19 08:45:23;;;;;;;7.07;2.97;;;;;;;34.09;20.11;101659.09;5022055;27;99154;-72
2022/07/19 08:47:51;;;;;;;7.18;3.28;;;;;;;34.23;19.48;101644.59;5021121;27;98965;-71
2022/07/19 08:50:18;;;;;;;7.45;2.33;;;;;;;34.18;19.70;101646.16;5023388;28;97750;-71
2022/07/19 08:52:45;;;;;;;7.38;2.22;;;;;;;34.45;20.02;101650.19;5023492;27;97224;-72
2022/07/19 08:55:11;;;;;;;7.95;2.33;;;;;;;34.46;19.92;101644.53;5022422;28;99203;-70
2022/07/19 09:00:22;;;;;;;7.50;2.10;;;;;;;34.75;19.56;101644.53;5030584;27;98282;-71
2022/07/19 09:02:54;;;;;;;5.88;2.28;;;;;;;34.84;19.79;101638.94;5026357;27;96805;-70
2022/07/19 09:05:21;;;;;;;8.52;2.53;;;;;;;34.84;19.64;101642.53;5021543;27;99079;-70
2022/07/19 09:08:02;;;;;;;7.65;2.75;;;;;;;34.98;19.73;101638.94;5021908;27;101824;-70
2022/07/19 09:10:28;;;;;;;6.35;2.35;;;;;;;34.98;19.42;101636.19;5020099;27;96746;-70
2022/07/19 09:13:07;;;;;;;7.13;2.55;;;;;;;35.03;19.16;101632.84;5023295;27;97289;-71
2022/07/19 09:15:45;;;;;;;6.57;2.17;;;;;;;34.94;19.13;101632.09;5022488;27;97912;-70
2022/07/19 09:18:15;;;;;;;9.15;2.20;;;;;;;34.86;18.94;101634.94;5018845;27;98808;-70
2022/07/19 09:20:43;;;;;;;5.95;2.00;;;;;;;34.97;18.64;101626.22;5022030;27;96773;-70
2022/07/19 09:23:10;;;;;;;10.95;2.72;;;;;;;34.73;19.15;101630.13;5019078;27;97350;-71
2022/07/19 09:25:39;;;;;;;16.65;3.00;;;;;;;35.19;19.10;101627.94;5020509;27;99157;-70
2022/07/19 09:28:10;;;;;;;6.53;2.40;;;;;;;35.21;19.13;101626.94;5016846;27;98742;-70
2022/07/19 09:30:43;;;;;;;5.13;2.25;;;;;;;35.11;18.36;101619.84;5022875;27;96863;-70
2022/07/19 09:33:15;;;;;;;3.60;2.65;;;;;;;34.93;17.97;101624.91;5025771;27;97098;-71
2022/07/19 09:35:44;;;;;;;5.45;2.60;;;;;;;34.89;18.48;101623.59;5019404;27;99249;-70
2022/07/19 09:38:20;;;;;;;6.90;2.17;;;;;;;34.94;18.17;101629.34;5017876;27;99179;-71
2022/07/19 09:40:47;;;;;;;10.30;3.00;;;;;;;34.87;18.61;101625.66;5019312;27;97076;-71
2022/07/19 09:43:14;;;;;;;7.80;2.30;;;;;;;34.84;18.89;101626.06;5021526;27;96784;-70
2022/07/19 09:45:41;;;;;;;5.60;2.20;;;;;;;35.01;18.33;101622.03;5023516;27;99145;-71
2022/07/19 09:48:08;;;;;;;5.93;2.25;;;;;;;34.89;18.49;101620.84;5019016;27;100697;-71
2022/07/19 09:50:36;;;;;;;4.63;2.50;;;;;;;35.05;17.80;101620.59;5019334;27;97312;-71
2022/07/19 09:53:05;;;;;;;4.85;2.40;;;;;;;34.79;18.74;101623.88;5019298;27;96903;-71
2022/07/19 09:55:32;;;;;;;7.30;3.92;;;;;;;35.01;18.11;101610.22;5017833;27;98905;-70
2022/07/19 09:58:01;;;;;;;10.32;3.13;;;;;;;34.88;18.84;101610.91;5029057;27;98069;-71
2022/07/19 10:00:27;;;;;;;34.33;4.18;;;;;;;35.11;18.81;101608.00;5019008;28;96850;-71
2022/07/19 10:02:56;;;;;;;9.10;2.50;;;;;;;35.27;18.56;101606.94;5029090;27;97210;-70
2022/07/19 10:05:23;;;;;;;18.83;2.83;;;;;;;35.32;19.10;101604.44;5022539;27;98056;-71
2022/07/19 10:07:51;;;;;;;5.32;1.95;;;;;;;34.83;18.18;101596.91;5023787;27;99169;-73
2022/07/19 10:10:20;;;;;;;4.60;2.33;;;;;;;34.46;18.02;101599.78;5017823;27;97296;-70
2022/07/19 10:12:48;;;;;;;3.78;2.22;;;;;;;34.85;18.10;101602.22;5025201;27;97248;-70
2022/07/19 10:15:17;;;;;;;11.70;2.50;;;;;;;34.73;18.47;101602.69;5015959;27;99010;-71
2022/07/19 10:17:51;;;;;;;11.32;2.55;;;;;;;34.84;17.89;101593.13;5021468;27;98849;-70
2022/07/19 10:20:22;;;;;;;4.25;1.95;;;;;;;34.61;18.44;101595.94;5023239;27;97571;-71
2022/07/19 10:22:49;;;;;;;11.52;2.92;;;;;;;34.92;17.91;101592.16;5024464;27;97561;-71
2022/07/19 10:25:19;;;;;;;108.28;6.93;;;;;;;34.91;17.66;101591.31;5022330;27;99178;-72
2022/07/19 10:27:47;;;;;;;16.55;3.40;;;;;;;35.18;17.75;101581.47;5023942;27;98888;-71
2022/07/19 10:30:25;;;;;;;11.57;2.30;;;;;;;35.25;17.81;101585.16;5016603;27;96910;-71
2022/07/19 10:32:55;;;;;;;5.05;2.10;;;;;;;35.24;17.68;101577.13;5022862;27;96820;-70
2022/07/19 10:35:23;;;;;;;7.88;2.30;;;;;;;35.50;17.90;101580.13;5018717;27;99957;-71
2022/07/19 10:37:51;;;;;;;3.50;2.00;;;;;;;35.28;17.26;101573.78;5021902;27;98873;-71
2022/07/19 10:40:41;;;;;;;3.53;1.75;;;;;;;35.33;17.75;101576.78;5019223;27;96901;-70
2022/07/19 10:43:09;;;;;;;21.40;4.50;;;;;;;35.35;17.84;101574.69;5018358;27;97175;-71
2022/07/19 10:45:36;;;;;;;7.80;1.92;;;;;;;35.09;18.12;101567.00;5021443;28;98053;-71
2022/07/19 10:48:06;;;;;;;7.80;2.20;;;;;;;35.09;17.84;101568.91;5019250;28;98140;-71
2022/07/19 10:50:58;;;;;;;4.32;2.40;;;;;;;35.20;18.44;101571.13;5019086;28;96924;-70
2022/07/19 10:53:56;;;;;;;6.53;2.33;;;;;;;35.04;17.76;101566.75;5019553;28;97164;-71
2022/07/19 10:56:27;;;;;;;5.53;2.33;;;;;;;35.39;17.29;101564.16;5022205;27;98347;-71
2022/07/19 10:58:56;;;;;;;10.35;2.67;;;;;;;35.24;17.95;101560.63;5023442;27;98973;-70
2022/07/19 11:01:25;;;;;;;3.95;2.03;;;;;;;35.33;17.48;101560.28;5024924;27;96988;-70
2022/07/19 11:03:54;;;;;;;7.38;2.13;;;;;;;35.42;17.56;101558.28;5020242;27;97093;-71
2022/07/19 11:06:24;;;;;;;8.38;2.13;;;;;;;35.40;17.73;101549.38;5020329;27;99031;-71
2022/07/19 11:08:55;;;;;;;10.13;2.65;;;;;;;35.45;17.68;101544.13;5015947;28;99578;-71
2022/07/19 11:11:22;;;;;;;5.25;2.70;;;;;;;35.62;17.69;101544.69;5020723;27;96777;-70
2022/07/19 11:13:52;;;;;;;5.72;1.90;;;;;;;35.55;17.17;101545.50;5025491;27;97933;-70
2022/07/19 11:16:19;;;;;;;4.22;2.03;;;;;;;35.48;16.61;101541.00;5025058;27;99576;-70
2022/07/19 11:18:46;;;;;;;4.18;2.30;;;;;;;35.57;16.64;101545.31;5017197;27;99085;-69
2022/07/19 11:21:14;;;;;;;3.72;1.70;;;;;;;35.73;16.52;101531.28;5018210;27;98846;-71
2022/07/19 11:23:41;;;;;;;36.28;3.53;;;;;;;35.42;16.16;101528.03;5026663;27;96820;-70
2022/07/19 11:26:11;;;;;;;3.83;1.50;;;;;;;35.30;15.51;101535.97;5021308;27;98898;-71
2022/07/19 11:28:40;;;;;;;4.43;1.48;;;;;;;35.08;15.49;101528.75;5024449;27;98821;-70